Airfield :







YOU CAN JOIN US ON...

 
LOGIN :

Register | Disclaimer

   EN    FR    IT 

 









Legend :    VFR   Marginal VFR   IFR   Intensive IFR   Very Intensive IFR
Visi :
Ceiling :
>= 8 km
>= 3000ft
5 to 8 km
1000 to 3000 ft
1500m to 5 km
500 to 1000 ft
800 to 1500m
200 to 500 ft
< 800m
< 200 ft
Symbols :   Thunderstorms  Fog  Heavy snow  Heavy precipitations  Wind > 20 kt






- Airport Elevation : 171 ft
- IATA code : KEF


BIKF - Keflavik International

CURRENT METAR :
  • 200200Z 36017KT 9999 -RASN FEW008 BKN014 OVC024 01/00 Q0961 R01/650063

EXPIRED METARs :
  • 200131Z 35019KT 9999 -RASN BKN010 OVC024 01/00 Q0961 R01/650063
  • 200100Z 35019KT 9999 -RASN BKN008 OVC024 01/01 Q0961 R01/550045
  • 200030Z 35019KT 9999 -RASN BKN010 OVC024 01/00 Q0961 R01/550045
  • 192330Z 33020KT 4000 -SN FEW004 BKN008 OVC022 01/01 Q0961 R01/950033

TAF TAF BIKF
Valid from the 20 at 00:00 until the 21 at 00:00 UTC


192253Z 2000/2100 01023G33KT 2000 -SN BKN008 OVC015 TX02/2009Z TNM01/2024Z
BECMG 2000/2002 9999 NSW SCT025 BKN035
BECMG 2014/2016 01020KT
BECMG 2020/2022 07014KT



MET'MAP, your aeronautical weather chart ! - Copyright ORBIFLY December 2007 - Disclaimer

ORBIFLY MET'MAP TEAM :

Programming & Development : Alexandra Zaïnal
Concept & original design : Baudouin d'Aumeries
Assistance for programming : Marc-Olivier Méhu
Technical & hardware support : Manuel Goepfert

Contact : metmap@orbifly.com




SOURCES & CREDITS :

   NOAA